sensor_id;sensor_type;location;lat;lon;timestamp;P1;durP1;ratioP1;P2;durP2;ratioP2
53299;SDS011;39187;48.476;8.310;2023-09-12T00:01:33;9.13;;;6.90;;
53299;SDS011;39187;48.476;8.310;2023-09-12T00:03:58;9.23;;;6.60;;
53299;SDS011;39187;48.476;8.310;2023-09-12T00:06:24;13.20;;;7.53;;
53299;SDS011;39187;48.476;8.310;2023-09-12T00:08:51;8.93;;;7.13;;
53299;SDS011;39187;48.476;8.310;2023-09-12T00:11:17;9.23;;;8.00;;
53299;SDS011;39187;48.476;8.310;2023-09-12T00:13:43;9.50;;;7.40;;
53299;SDS011;39187;48.476;8.310;2023-09-12T00:16:10;16.50;;;8.20;;
53299;SDS011;39187;48.476;8.310;2023-09-12T00:18:36;8.80;;;7.90;;
53299;SDS011;39187;48.476;8.310;2023-09-12T00:21:02;14.93;;;8.27;;
53299;SDS011;39187;48.476;8.310;2023-09-12T00:23:28;10.13;;;8.30;;
53299;SDS011;39187;48.476;8.310;2023-09-12T00:25:54;9.90;;;8.23;;
53299;SDS011;39187;48.476;8.310;2023-09-12T00:28:20;12.63;;;7.40;;
53299;SDS011;39187;48.476;8.310;2023-09-12T00:30:46;10.70;;;7.57;;
53299;SDS011;39187;48.476;8.310;2023-09-12T00:33:12;17.70;;;9.07;;
53299;SDS011;39187;48.476;8.310;2023-09-12T00:35:37;8.80;;;8.10;;
53299;SDS011;39187;48.476;8.310;2023-09-12T00:38:03;13.63;;;6.97;;
53299;SDS011;39187;48.476;8.310;2023-09-12T00:40:28;9.37;;;8.43;;
53299;SDS011;39187;48.476;8.310;2023-09-12T00:42:54;15.83;;;9.17;;
53299;SDS011;39187;48.476;8.310;2023-09-12T00:45:20;8.17;;;7.43;;
53299;SDS011;39187;48.476;8.310;2023-09-12T00:47:46;8.10;;;7.50;;
53299;SDS011;39187;48.476;8.310;2023-09-12T00:50:13;11.50;;;6.60;;
53299;SDS011;39187;48.476;8.310;2023-09-12T00:52:41;8.27;;;7.40;;
53299;SDS011;39187;48.476;8.310;2023-09-12T00:55:08;12.40;;;7.73;;
53299;SDS011;39187;48.476;8.310;2023-09-12T00:57:34;7.40;;;6.77;;
53299;SDS011;39187;48.476;8.310;2023-09-12T01:00:01;14.00;;;7.63;;
53299;SDS011;39187;48.476;8.310;2023-09-12T01:02:36;7.10;;;6.80;;
53299;SDS011;39187;48.476;8.310;2023-09-12T01:05:02;9.97;;;7.57;;
53299;SDS011;39187;48.476;8.310;2023-09-12T01:07:29;8.90;;;7.93;;
53299;SDS011;39187;48.476;8.310;2023-09-12T01:09:55;9.40;;;8.77;;
53299;SDS011;39187;48.476;8.310;2023-09-12T01:12:21;7.93;;;7.37;;
53299;SDS011;39187;48.476;8.310;2023-09-12T01:14:47;8.30;;;7.73;;
53299;SDS011;39187;48.476;8.310;2023-09-12T01:17:13;9.00;;;8.40;;
53299;SDS011;39187;48.476;8.310;2023-09-12T01:19:39;10.40;;;9.60;;
53299;SDS011;39187;48.476;8.310;2023-09-12T01:27:34;9.30;;;8.30;;
53299;SDS011;39187;48.476;8.310;2023-09-12T01:30:02;8.37;;;7.80;;
53299;SDS011;39187;48.476;8.310;2023-09-12T01:32:31;9.67;;;9.07;;
53299;SDS011;39187;48.476;8.310;2023-09-12T01:34:59;9.43;;;8.80;;
53299;SDS011;39187;48.476;8.310;2023-09-12T01:37:25;9.50;;;8.93;;
53299;SDS011;39187;48.476;8.310;2023-09-12T01:39:51;10.93;;;10.03;;
53299;SDS011;39187;48.476;8.310;2023-09-12T01:42:18;8.93;;;8.47;;
53299;SDS011;39187;48.476;8.310;2023-09-12T01:44:46;8.87;;;8.27;;
53299;SDS011;39187;48.476;8.310;2023-09-12T01:47:14;8.93;;;8.30;;
53299;SDS011;39187;48.476;8.310;2023-09-12T01:49:42;9.50;;;8.90;;
53299;SDS011;39187;48.476;8.310;2023-09-12T01:52:12;9.77;;;9.17;;
53299;SDS011;39187;48.476;8.310;2023-09-12T01:54:39;9.63;;;8.77;;
53299;SDS011;39187;48.476;8.310;2023-09-12T01:57:06;8.37;;;7.97;;
53299;SDS011;39187;48.476;8.310;2023-09-12T01:59:33;10.73;;;8.60;;
53299;SDS011;39187;48.476;8.310;2023-09-12T02:01:59;8.60;;;8.20;;
53299;SDS011;39187;48.476;8.310;2023-09-12T02:04:25;8.73;;;7.33;;
53299;SDS011;39187;48.476;8.310;2023-09-12T02:06:50;8.90;;;8.30;;
53299;SDS011;39187;48.476;8.310;2023-09-12T02:09:16;9.60;;;9.00;;
53299;SDS011;39187;48.476;8.310;2023-09-12T02:11:41;9.93;;;9.20;;
53299;SDS011;39187;48.476;8.310;2023-09-12T02:14:07;9.30;;;8.80;;
53299;SDS011;39187;48.476;8.310;2023-09-12T02:16:35;9.60;;;8.90;;
53299;SDS011;39187;48.476;8.310;2023-09-12T02:19:03;9.77;;;9.10;;
53299;SDS011;39187;48.476;8.310;2023-09-12T02:21:29;7.97;;;7.53;;
53299;SDS011;39187;48.476;8.310;2023-09-12T02:23:55;8.87;;;8.23;;
53299;SDS011;39187;48.476;8.310;2023-09-12T02:26:21;9.43;;;8.93;;
53299;SDS011;39187;48.476;8.310;2023-09-12T02:28:46;9.33;;;8.47;;
53299;SDS011;39187;48.476;8.310;2023-09-12T02:31:12;7.57;;;7.17;;
53299;SDS011;39187;48.476;8.310;2023-09-12T02:33:38;7.73;;;7.03;;
53299;SDS011;39187;48.476;8.310;2023-09-12T02:36:04;8.10;;;7.53;;
53299;SDS011;39187;48.476;8.310;2023-09-12T02:38:30;8.27;;;7.57;;
53299;SDS011;39187;48.476;8.310;2023-09-12T02:40:56;7.80;;;7.10;;
53299;SDS011;39187;48.476;8.310;2023-09-12T02:43:21;8.77;;;8.00;;
53299;SDS011;39187;48.476;8.310;2023-09-12T02:45:47;7.60;;;7.10;;
53299;SDS011;39187;48.476;8.310;2023-09-12T02:48:12;9.03;;;6.80;;
53299;SDS011;39187;48.476;8.310;2023-09-12T02:50:38;8.53;;;7.83;;
53299;SDS011;39187;48.476;8.310;2023-09-12T02:53:04;6.80;;;6.40;;
53299;SDS011;39187;48.476;8.310;2023-09-12T02:55:30;8.63;;;7.00;;
53299;SDS011;39187;48.476;8.310;2023-09-12T02:57:55;8.00;;;7.30;;
53299;SDS011;39187;48.476;8.310;2023-09-12T03:00:21;8.40;;;7.40;;
53299;SDS011;39187;48.476;8.310;2023-09-12T03:02:47;7.80;;;7.20;;
53299;SDS011;39187;48.476;8.310;2023-09-12T03:05:13;10.43;;;6.60;;
53299;SDS011;39187;48.476;8.310;2023-09-12T03:07:39;7.03;;;6.33;;
53299;SDS011;39187;48.476;8.310;2023-09-12T03:10:04;8.10;;;7.33;;
53299;SDS011;39187;48.476;8.310;2023-09-12T03:12:30;7.07;;;6.73;;
53299;SDS011;39187;48.476;8.310;2023-09-12T03:14:56;8.90;;;7.07;;
53299;SDS011;39187;48.476;8.310;2023-09-12T03:17:22;9.50;;;6.80;;
53299;SDS011;39187;48.476;8.310;2023-09-12T03:19:48;6.87;;;6.57;;
53299;SDS011;39187;48.476;8.310;2023-09-12T03:22:14;8.10;;;7.33;;
53299;SDS011;39187;48.476;8.310;2023-09-12T03:24:39;13.60;;;7.17;;
53299;SDS011;39187;48.476;8.310;2023-09-12T03:27:05;6.67;;;6.37;;
53299;SDS011;39187;48.476;8.310;2023-09-12T03:29:30;7.37;;;6.87;;
53299;SDS011;39187;48.476;8.310;2023-09-12T03:31:56;7.10;;;6.70;;
53299;SDS011;39187;48.476;8.310;2023-09-12T03:34:22;8.00;;;7.17;;
53299;SDS011;39187;48.476;8.310;2023-09-12T03:36:47;7.30;;;6.90;;
53299;SDS011;39187;48.476;8.310;2023-09-12T03:39:13;7.23;;;6.63;;
53299;SDS011;39187;48.476;8.310;2023-09-12T03:41:40;6.77;;;6.43;;
53299;SDS011;39187;48.476;8.310;2023-09-12T03:44:06;6.60;;;6.30;;
53299;SDS011;39187;48.476;8.310;2023-09-12T03:46:31;7.57;;;6.40;;
53299;SDS011;39187;48.476;8.310;2023-09-12T03:48:57;9.30;;;8.37;;
53299;SDS011;39187;48.476;8.310;2023-09-12T03:51:23;9.00;;;7.80;;
53299;SDS011;39187;48.476;8.310;2023-09-12T03:53:48;6.40;;;5.77;;
53299;SDS011;39187;48.476;8.310;2023-09-12T03:56:15;7.57;;;6.97;;
53299;SDS011;39187;48.476;8.310;2023-09-12T03:58:41;8.50;;;6.87;;
53299;SDS011;39187;48.476;8.310;2023-09-12T04:01:07;8.27;;;7.67;;
53299;SDS011;39187;48.476;8.310;2023-09-12T04:03:33;7.33;;;6.83;;
53299;SDS011;39187;48.476;8.310;2023-09-12T04:05:59;7.40;;;6.70;;
53299;SDS011;39187;48.476;8.310;2023-09-12T04:08:24;7.73;;;6.90;;
53299;SDS011;39187;48.476;8.310;2023-09-12T04:10:50;8.40;;;7.80;;
53299;SDS011;39187;48.476;8.310;2023-09-12T04:13:15;8.03;;;7.37;;
53299;SDS011;39187;48.476;8.310;2023-09-12T04:15:41;6.50;;;6.10;;
53299;SDS011;39187;48.476;8.310;2023-09-12T04:18:06;6.47;;;6.17;;
53299;SDS011;39187;48.476;8.310;2023-09-12T04:20:32;6.90;;;6.50;;
53299;SDS011;39187;48.476;8.310;2023-09-12T04:23:01;17.47;;;6.43;;
53299;SDS011;39187;48.476;8.310;2023-09-12T04:25:28;8.13;;;7.50;;
53299;SDS011;39187;48.476;8.310;2023-09-12T04:27:54;7.33;;;6.73;;
53299;SDS011;39187;48.476;8.310;2023-09-12T04:30:20;6.30;;;5.90;;
53299;SDS011;39187;48.476;8.310;2023-09-12T04:32:45;8.27;;;7.50;;
53299;SDS011;39187;48.476;8.310;2023-09-12T04:35:11;7.80;;;7.20;;
53299;SDS011;39187;48.476;8.310;2023-09-12T04:37:36;6.33;;;5.90;;
53299;SDS011;39187;48.476;8.310;2023-09-12T04:40:02;6.73;;;6.30;;
53299;SDS011;39187;48.476;8.310;2023-09-12T04:42:30;7.57;;;7.07;;
53299;SDS011;39187;48.476;8.310;2023-09-12T04:44:56;7.43;;;6.90;;
53299;SDS011;39187;48.476;8.310;2023-09-12T04:47:21;6.80;;;6.50;;
53299;SDS011;39187;48.476;8.310;2023-09-12T04:49:47;8.53;;;8.03;;
53299;SDS011;39187;48.476;8.310;2023-09-12T04:52:13;9.57;;;7.10;;
53299;SDS011;39187;48.476;8.310;2023-09-12T04:54:38;7.57;;;7.00;;
53299;SDS011;39187;48.476;8.310;2023-09-12T04:57:04;6.87;;;6.47;;
53299;SDS011;39187;48.476;8.310;2023-09-12T04:59:30;6.60;;;6.20;;
53299;SDS011;39187;48.476;8.310;2023-09-12T05:01:55;10.00;;;6.93;;
53299;SDS011;39187;48.476;8.310;2023-09-12T05:04:21;11.20;;;7.40;;
53299;SDS011;39187;48.476;8.310;2023-09-12T05:06:46;7.50;;;6.40;;
53299;SDS011;39187;48.476;8.310;2023-09-12T05:09:12;7.40;;;6.90;;
53299;SDS011;39187;48.476;8.310;2023-09-12T05:11:38;7.87;;;7.13;;
53299;SDS011;39187;48.476;8.310;2023-09-12T05:14:04;7.23;;;6.80;;
53299;SDS011;39187;48.476;8.310;2023-09-12T05:16:29;9.40;;;6.27;;
53299;SDS011;39187;48.476;8.310;2023-09-12T05:18:55;9.60;;;8.77;;
53299;SDS011;39187;48.476;8.310;2023-09-12T05:21:21;6.93;;;6.43;;
53299;SDS011;39187;48.476;8.310;2023-09-12T05:23:46;6.50;;;6.00;;
53299;SDS011;39187;48.476;8.310;2023-09-12T05:26:12;9.07;;;6.60;;
53299;SDS011;39187;48.476;8.310;2023-09-12T05:28:38;8.17;;;7.10;;
53299;SDS011;39187;48.476;8.310;2023-09-12T05:31:04;7.73;;;6.50;;
53299;SDS011;39187;48.476;8.310;2023-09-12T05:33:30;8.17;;;7.47;;
53299;SDS011;39187;48.476;8.310;2023-09-12T05:35:55;5.57;;;5.17;;
53299;SDS011;39187;48.476;8.310;2023-09-12T05:38:21;8.47;;;7.67;;
53299;SDS011;39187;48.476;8.310;2023-09-12T05:40:46;7.20;;;6.60;;
53299;SDS011;39187;48.476;8.310;2023-09-12T05:43:15;10.97;;;7.53;;
53299;SDS011;39187;48.476;8.310;2023-09-12T05:45:41;7.13;;;6.73;;
53299;SDS011;39187;48.476;8.310;2023-09-12T05:48:07;7.00;;;6.70;;
53299;SDS011;39187;48.476;8.310;2023-09-12T05:50:34;7.33;;;6.63;;
53299;SDS011;39187;48.476;8.310;2023-09-12T05:53:01;8.03;;;7.53;;
53299;SDS011;39187;48.476;8.310;2023-09-12T05:55:27;9.23;;;7.10;;
53299;SDS011;39187;48.476;8.310;2023-09-12T05:57:53;7.83;;;7.30;;
53299;SDS011;39187;48.476;8.310;2023-09-12T06:00:18;8.07;;;7.47;;
53299;SDS011;39187;48.476;8.310;2023-09-12T06:02:46;8.93;;;8.27;;
53299;SDS011;39187;48.476;8.310;2023-09-12T06:05:13;9.87;;;9.17;;
53299;SDS011;39187;48.476;8.310;2023-09-12T06:07:39;9.33;;;8.80;;
53299;SDS011;39187;48.476;8.310;2023-09-12T06:10:06;7.97;;;7.30;;
53299;SDS011;39187;48.476;8.310;2023-09-12T06:12:32;9.60;;;8.97;;
53299;SDS011;39187;48.476;8.310;2023-09-12T06:14:58;8.60;;;7.90;;
53299;SDS011;39187;48.476;8.310;2023-09-12T06:17:27;9.60;;;7.90;;
53299;SDS011;39187;48.476;8.310;2023-09-12T06:19:54;7.93;;;7.20;;
53299;SDS011;39187;48.476;8.310;2023-09-12T06:22:19;9.07;;;8.27;;
53299;SDS011;39187;48.476;8.310;2023-09-12T06:24:45;8.37;;;7.80;;
53299;SDS011;39187;48.476;8.310;2023-09-12T06:27:11;7.57;;;7.03;;
53299;SDS011;39187;48.476;8.310;2023-09-12T06:29:44;8.27;;;7.80;;
53299;SDS011;39187;48.476;8.310;2023-09-12T06:32:10;8.47;;;7.70;;
53299;SDS011;39187;48.476;8.310;2023-09-12T06:34:36;8.93;;;8.23;;
53299;SDS011;39187;48.476;8.310;2023-09-12T06:37:01;8.10;;;7.60;;
53299;SDS011;39187;48.476;8.310;2023-09-12T06:39:27;8.83;;;8.37;;
53299;SDS011;39187;48.476;8.310;2023-09-12T06:41:53;8.93;;;7.70;;
53299;SDS011;39187;48.476;8.310;2023-09-12T06:44:18;8.30;;;7.63;;
53299;SDS011;39187;48.476;8.310;2023-09-12T06:46:44;8.70;;;7.27;;
53299;SDS011;39187;48.476;8.310;2023-09-12T06:49:09;8.07;;;7.37;;
53299;SDS011;39187;48.476;8.310;2023-09-12T06:51:35;8.47;;;7.60;;
53299;SDS011;39187;48.476;8.310;2023-09-12T06:54:00;8.50;;;7.97;;
53299;SDS011;39187;48.476;8.310;2023-09-12T06:56:26;7.63;;;7.23;;
53299;SDS011;39187;48.476;8.310;2023-09-12T06:58:52;7.97;;;7.47;;
53299;SDS011;39187;48.476;8.310;2023-09-12T07:01:20;10.03;;;9.03;;
53299;SDS011;39187;48.476;8.310;2023-09-12T07:03:46;8.77;;;8.00;;
53299;SDS011;39187;48.476;8.310;2023-09-12T07:06:12;7.97;;;7.33;;
53299;SDS011;39187;48.476;8.310;2023-09-12T07:08:37;7.53;;;7.13;;
53299;SDS011;39187;48.476;8.310;2023-09-12T07:11:03;8.83;;;8.03;;
53299;SDS011;39187;48.476;8.310;2023-09-12T07:13:31;8.40;;;8.00;;
53299;SDS011;39187;48.476;8.310;2023-09-12T07:15:58;8.37;;;7.27;;
53299;SDS011;39187;48.476;8.310;2023-09-12T07:18:23;6.97;;;6.63;;
53299;SDS011;39187;48.476;8.310;2023-09-12T07:20:59;7.97;;;7.63;;
53299;SDS011;39187;48.476;8.310;2023-09-12T07:23:26;7.73;;;7.30;;
53299;SDS011;39187;48.476;8.310;2023-09-12T07:25:52;7.13;;;6.63;;
53299;SDS011;39187;48.476;8.310;2023-09-12T07:28:19;8.30;;;7.90;;
53299;SDS011;39187;48.476;8.310;2023-09-12T07:30:47;8.63;;;7.80;;
53299;SDS011;39187;48.476;8.310;2023-09-12T07:33:13;8.30;;;7.63;;
53299;SDS011;39187;48.476;8.310;2023-09-12T07:35:39;10.20;;;7.13;;
53299;SDS011;39187;48.476;8.310;2023-09-12T07:38:04;8.63;;;7.77;;
53299;SDS011;39187;48.476;8.310;2023-09-12T07:40:30;14.60;;;7.00;;
53299;SDS011;39187;48.476;8.310;2023-09-12T07:42:56;7.03;;;6.63;;
53299;SDS011;39187;48.476;8.310;2023-09-12T07:45:21;8.53;;;7.90;;
53299;SDS011;39187;48.476;8.310;2023-09-12T07:47:47;6.43;;;6.03;;
53299;SDS011;39187;48.476;8.310;2023-09-12T07:50:13;6.97;;;6.53;;
53299;SDS011;39187;48.476;8.310;2023-09-12T07:52:39;7.77;;;7.23;;
53299;SDS011;39187;48.476;8.310;2023-09-12T07:55:07;7.53;;;7.13;;
53299;SDS011;39187;48.476;8.310;2023-09-12T07:57:33;8.07;;;7.57;;
53299;SDS011;39187;48.476;8.310;2023-09-12T07:59:59;7.93;;;7.37;;
53299;SDS011;39187;48.476;8.310;2023-09-12T08:02:25;11.80;;;6.90;;
53299;SDS011;39187;48.476;8.310;2023-09-12T08:04:52;7.80;;;7.03;;
53299;SDS011;39187;48.476;8.310;2023-09-12T08:07:18;7.63;;;6.80;;
53299;SDS011;39187;48.476;8.310;2023-09-12T08:09:48;7.83;;;7.47;;
53299;SDS011;39187;48.476;8.310;2023-09-12T08:12:18;6.67;;;6.27;;
53299;SDS011;39187;48.476;8.310;2023-09-12T08:14:45;8.20;;;7.60;;
53299;SDS011;39187;48.476;8.310;2023-09-12T08:17:11;7.60;;;7.10;;
53299;SDS011;39187;48.476;8.310;2023-09-12T08:19:38;8.10;;;7.33;;
53299;SDS011;39187;48.476;8.310;2023-09-12T08:22:06;6.90;;;6.20;;
53299;SDS011;39187;48.476;8.310;2023-09-12T08:24:35;7.40;;;6.73;;
53299;SDS011;39187;48.476;8.310;2023-09-12T08:27:01;7.80;;;7.30;;
53299;SDS011;39187;48.476;8.310;2023-09-12T08:29:28;7.67;;;6.97;;
53299;SDS011;39187;48.476;8.310;2023-09-12T08:31:54;6.83;;;6.43;;
53299;SDS011;39187;48.476;8.310;2023-09-12T08:34:20;7.53;;;7.13;;
53299;SDS011;39187;48.476;8.310;2023-09-12T08:36:46;7.47;;;7.00;;
53299;SDS011;39187;48.476;8.310;2023-09-12T08:39:15;8.60;;;6.70;;
53299;SDS011;39187;48.476;8.310;2023-09-12T08:41:43;8.70;;;8.07;;
53299;SDS011;39187;48.476;8.310;2023-09-12T08:44:11;7.80;;;7.30;;
53299;SDS011;39187;48.476;8.310;2023-09-12T08:46:39;7.03;;;6.73;;
53299;SDS011;39187;48.476;8.310;2023-09-12T08:49:07;10.40;;;6.67;;
53299;SDS011;39187;48.476;8.310;2023-09-12T08:51:35;7.43;;;7.10;;
53299;SDS011;39187;48.476;8.310;2023-09-12T08:54:02;6.77;;;6.27;;
53299;SDS011;39187;48.476;8.310;2023-09-12T08:56:29;7.70;;;7.03;;
53299;SDS011;39187;48.476;8.310;2023-09-12T08:58:57;7.80;;;7.10;;
53299;SDS011;39187;48.476;8.310;2023-09-12T09:01:23;8.00;;;7.30;;
53299;SDS011;39187;48.476;8.310;2023-09-12T09:03:53;7.30;;;6.87;;
53299;SDS011;39187;48.476;8.310;2023-09-12T09:06:19;7.50;;;7.17;;
53299;SDS011;39187;48.476;8.310;2023-09-12T09:08:48;8.00;;;7.47;;
53299;SDS011;39187;48.476;8.310;2023-09-12T09:11:15;6.07;;;5.67;;
53299;SDS011;39187;48.476;8.310;2023-09-12T09:13:40;7.07;;;6.70;;
53299;SDS011;39187;48.476;8.310;2023-09-12T09:16:10;10.70;;;7.13;;
53299;SDS011;39187;48.476;8.310;2023-09-12T09:18:49;8.23;;;7.60;;
53299;SDS011;39187;48.476;8.310;2023-09-12T09:21:17;7.77;;;7.43;;
53299;SDS011;39187;48.476;8.310;2023-09-12T09:23:49;8.83;;;8.23;;
53299;SDS011;39187;48.476;8.310;2023-09-12T09:26:16;8.17;;;7.57;;
53299;SDS011;39187;48.476;8.310;2023-09-12T09:28:42;6.93;;;6.63;;
53299;SDS011;39187;48.476;8.310;2023-09-12T09:31:11;8.00;;;7.40;;
53299;SDS011;39187;48.476;8.310;2023-09-12T09:33:41;7.23;;;6.73;;
53299;SDS011;39187;48.476;8.310;2023-09-12T09:36:14;7.77;;;7.40;;
53299;SDS011;39187;48.476;8.310;2023-09-12T09:38:40;7.50;;;7.20;;
53299;SDS011;39187;48.476;8.310;2023-09-12T09:41:06;7.23;;;6.80;;
53299;SDS011;39187;48.476;8.310;2023-09-12T09:43:32;6.40;;;6.20;;
53299;SDS011;39187;48.476;8.310;2023-09-12T09:45:58;7.13;;;6.53;;
53299;SDS011;39187;48.476;8.310;2023-09-12T09:48:24;7.60;;;6.90;;
53299;SDS011;39187;48.476;8.310;2023-09-12T09:51:02;7.10;;;6.67;;
53299;SDS011;39187;48.476;8.310;2023-09-12T09:53:29;6.93;;;6.53;;
53299;SDS011;39187;48.476;8.310;2023-09-12T09:56:06;7.00;;;6.60;;
53299;SDS011;39187;48.476;8.310;2023-09-12T09:58:36;9.83;;;7.30;;
53299;SDS011;39187;48.476;8.310;2023-09-12T10:01:07;7.70;;;7.03;;
53299;SDS011;39187;48.476;8.310;2023-09-12T10:03:36;9.17;;;6.53;;
53299;SDS011;39187;48.476;8.310;2023-09-12T10:06:03;7.93;;;7.10;;
53299;SDS011;39187;48.476;8.310;2023-09-12T10:08:30;8.80;;;6.80;;
53299;SDS011;39187;48.476;8.310;2023-09-12T10:10:57;7.43;;;6.80;;
53299;SDS011;39187;48.476;8.310;2023-09-12T10:13:26;7.33;;;6.87;;
53299;SDS011;39187;48.476;8.310;2023-09-12T10:15:56;8.03;;;7.53;;
53299;SDS011;39187;48.476;8.310;2023-09-12T10:18:23;9.37;;;7.60;;
53299;SDS011;39187;48.476;8.310;2023-09-12T10:20:55;8.30;;;7.67;;
53299;SDS011;39187;48.476;8.310;2023-09-12T10:26:23;7.67;;;6.87;;
53299;SDS011;39187;48.476;8.310;2023-09-12T10:28:49;6.90;;;6.60;;
53299;SDS011;39187;48.476;8.310;2023-09-12T10:31:16;6.67;;;6.27;;
53299;SDS011;39187;48.476;8.310;2023-09-12T10:33:43;10.13;;;6.70;;
53299;SDS011;39187;48.476;8.310;2023-09-12T10:36:10;6.77;;;6.10;;
53299;SDS011;39187;48.476;8.310;2023-09-12T10:38:40;6.87;;;6.37;;
53299;SDS011;39187;48.476;8.310;2023-09-12T10:41:12;7.80;;;7.40;;
53299;SDS011;39187;48.476;8.310;2023-09-12T10:43:41;7.70;;;7.10;;
53299;SDS011;39187;48.476;8.310;2023-09-12T10:46:08;6.97;;;6.57;;
53299;SDS011;39187;48.476;8.310;2023-09-12T10:48:35;8.87;;;7.63;;
53299;SDS011;39187;48.476;8.310;2023-09-12T10:51:01;8.87;;;7.90;;
53299;SDS011;39187;48.476;8.310;2023-09-12T10:53:31;11.00;;;8.33;;
53299;SDS011;39187;48.476;8.310;2023-09-12T10:58:47;8.23;;;7.63;;
53299;SDS011;39187;48.476;8.310;2023-09-12T11:01:46;8.37;;;7.67;;
53299;SDS011;39187;48.476;8.310;2023-09-12T11:06:49;8.03;;;7.43;;
53299;SDS011;39187;48.476;8.310;2023-09-12T11:09:25;9.17;;;7.07;;
53299;SDS011;39187;48.476;8.310;2023-09-12T11:11:59;7.57;;;6.90;;
53299;SDS011;39187;48.476;8.310;2023-09-12T11:14:28;6.90;;;6.20;;
53299;SDS011;39187;48.476;8.310;2023-09-12T11:19:50;7.13;;;6.40;;
53299;SDS011;39187;48.476;8.310;2023-09-12T11:22:24;7.27;;;6.67;;
53299;SDS011;39187;48.476;8.310;2023-09-12T11:24:52;6.43;;;5.93;;
53299;SDS011;39187;48.476;8.310;2023-09-12T11:27:20;11.40;;;6.37;;
53299;SDS011;39187;48.476;8.310;2023-09-12T11:29:46;6.13;;;5.83;;
53299;SDS011;39187;48.476;8.310;2023-09-12T11:32:24;9.63;;;5.90;;
53299;SDS011;39187;48.476;8.310;2023-09-12T11:34:52;7.00;;;6.40;;
53299;SDS011;39187;48.476;8.310;2023-09-12T11:37:26;6.20;;;6.00;;
53299;SDS011;39187;48.476;8.310;2023-09-12T11:39:53;5.87;;;5.63;;
53299;SDS011;39187;48.476;8.310;2023-09-12T11:42:20;5.70;;;5.47;;
53299;SDS011;39187;48.476;8.310;2023-09-12T11:44:48;10.63;;;5.93;;
53299;SDS011;39187;48.476;8.310;2023-09-12T11:47:16;5.93;;;5.63;;
53299;SDS011;39187;48.476;8.310;2023-09-12T11:49:41;9.80;;;6.00;;
53299;SDS011;39187;48.476;8.310;2023-09-12T11:52:08;6.33;;;5.80;;
53299;SDS011;39187;48.476;8.310;2023-09-12T11:54:34;6.73;;;6.30;;
53299;SDS011;39187;48.476;8.310;2023-09-12T11:57:01;6.40;;;5.90;;
53299;SDS011;39187;48.476;8.310;2023-09-12T11:59:28;6.70;;;6.10;;
53299;SDS011;39187;48.476;8.310;2023-09-12T12:01:54;6.63;;;6.13;;
53299;SDS011;39187;48.476;8.310;2023-09-12T12:04:24;7.57;;;7.00;;
53299;SDS011;39187;48.476;8.310;2023-09-12T12:06:53;7.40;;;7.00;;
53299;SDS011;39187;48.476;8.310;2023-09-12T12:09:19;6.50;;;6.20;;
53299;SDS011;39187;48.476;8.310;2023-09-12T12:11:45;6.13;;;5.73;;
53299;SDS011;39187;48.476;8.310;2023-09-12T12:14:15;6.93;;;6.63;;
53299;SDS011;39187;48.476;8.310;2023-09-12T12:16:42;7.90;;;7.50;;
53299;SDS011;39187;48.476;8.310;2023-09-12T12:19:10;7.13;;;6.73;;
53299;SDS011;39187;48.476;8.310;2023-09-12T12:21:37;7.53;;;7.03;;
53299;SDS011;39187;48.476;8.310;2023-09-12T12:24:03;9.50;;;7.23;;
53299;SDS011;39187;48.476;8.310;2023-09-12T12:26:30;6.63;;;6.43;;
53299;SDS011;39187;48.476;8.310;2023-09-12T12:28:56;7.47;;;6.90;;
53299;SDS011;39187;48.476;8.310;2023-09-12T12:31:22;7.20;;;6.90;;
53299;SDS011;39187;48.476;8.310;2023-09-12T12:33:50;6.50;;;6.20;;
53299;SDS011;39187;48.476;8.310;2023-09-12T12:36:18;6.73;;;6.03;;
53299;SDS011;39187;48.476;8.310;2023-09-12T12:38:48;7.80;;;7.30;;
53299;SDS011;39187;48.476;8.310;2023-09-12T12:41:21;6.73;;;6.37;;
53299;SDS011;39187;48.476;8.310;2023-09-12T12:43:49;7.10;;;6.40;;
53299;SDS011;39187;48.476;8.310;2023-09-12T12:46:21;6.70;;;6.47;;
53299;SDS011;39187;48.476;8.310;2023-09-12T12:48:47;5.87;;;5.67;;
53299;SDS011;39187;48.476;8.310;2023-09-12T12:51:17;8.00;;;6.77;;
53299;SDS011;39187;48.476;8.310;2023-09-12T12:53:45;8.20;;;7.37;;
53299;SDS011;39187;48.476;8.310;2023-09-12T12:56:13;6.83;;;6.37;;
53299;SDS011;39187;48.476;8.310;2023-09-12T12:59:02;6.37;;;6.07;;
53299;SDS011;39187;48.476;8.310;2023-09-12T13:01:32;7.07;;;6.77;;
53299;SDS011;39187;48.476;8.310;2023-09-12T13:03:59;7.80;;;7.20;;
53299;SDS011;39187;48.476;8.310;2023-09-12T13:06:25;7.07;;;6.57;;
53299;SDS011;39187;48.476;8.310;2023-09-12T13:08:53;6.83;;;6.60;;
53299;SDS011;39187;48.476;8.310;2023-09-12T13:11:19;8.33;;;6.57;;
53299;SDS011;39187;48.476;8.310;2023-09-12T13:13:46;8.30;;;7.67;;
53299;SDS011;39187;48.476;8.310;2023-09-12T13:16:14;8.23;;;6.20;;
53299;SDS011;39187;48.476;8.310;2023-09-12T13:18:40;7.87;;;7.20;;
53299;SDS011;39187;48.476;8.310;2023-09-12T13:21:06;7.37;;;6.97;;
53299;SDS011;39187;48.476;8.310;2023-09-12T13:23:36;7.37;;;6.87;;
53299;SDS011;39187;48.476;8.310;2023-09-12T13:26:02;7.40;;;6.90;;
53299;SDS011;39187;48.476;8.310;2023-09-12T13:28:29;7.53;;;7.13;;
53299;SDS011;39187;48.476;8.310;2023-09-12T13:30:55;6.30;;;6.10;;
53299;SDS011;39187;48.476;8.310;2023-09-12T13:33:22;8.27;;;7.47;;
53299;SDS011;39187;48.476;8.310;2023-09-12T13:35:49;7.00;;;6.63;;
53299;SDS011;39187;48.476;8.310;2023-09-12T13:38:15;6.90;;;6.40;;
53299;SDS011;39187;48.476;8.310;2023-09-12T13:40:43;7.00;;;6.70;;
53299;SDS011;39187;48.476;8.310;2023-09-12T13:43:09;7.13;;;6.63;;
53299;SDS011;39187;48.476;8.310;2023-09-12T13:45:35;7.37;;;6.97;;
53299;SDS011;39187;48.476;8.310;2023-09-12T13:48:04;7.13;;;6.70;;
53299;SDS011;39187;48.476;8.310;2023-09-12T13:50:31;7.27;;;6.87;;
53299;SDS011;39187;48.476;8.310;2023-09-12T13:52:57;7.30;;;6.90;;
53299;SDS011;39187;48.476;8.310;2023-09-12T13:55:32;6.67;;;6.23;;
53299;SDS011;39187;48.476;8.310;2023-09-12T13:57:58;6.00;;;5.60;;
53299;SDS011;39187;48.476;8.310;2023-09-12T14:00:24;7.30;;;6.77;;
53299;SDS011;39187;48.476;8.310;2023-09-12T14:02:50;7.57;;;6.97;;
53299;SDS011;39187;48.476;8.310;2023-09-12T14:05:15;7.50;;;7.10;;
53299;SDS011;39187;48.476;8.310;2023-09-12T14:07:41;7.23;;;6.90;;
53299;SDS011;39187;48.476;8.310;2023-09-12T14:10:07;10.10;;;7.67;;
53299;SDS011;39187;48.476;8.310;2023-09-12T14:12:33;6.63;;;6.43;;
53299;SDS011;39187;48.476;8.310;2023-09-12T14:14:58;7.97;;;7.27;;
53299;SDS011;39187;48.476;8.310;2023-09-12T14:17:24;7.00;;;6.30;;
53299;SDS011;39187;48.476;8.310;2023-09-12T14:19:50;6.60;;;6.30;;
53299;SDS011;39187;48.476;8.310;2023-09-12T14:22:16;6.40;;;6.10;;
53299;SDS011;39187;48.476;8.310;2023-09-12T14:24:41;6.40;;;5.87;;
53299;SDS011;39187;48.476;8.310;2023-09-12T14:27:07;7.63;;;7.13;;
53299;SDS011;39187;48.476;8.310;2023-09-12T14:29:32;6.77;;;6.10;;
53299;SDS011;39187;48.476;8.310;2023-09-12T14:31:58;5.47;;;5.17;;
53299;SDS011;39187;48.476;8.310;2023-09-12T14:34:24;6.27;;;6.07;;
53299;SDS011;39187;48.476;8.310;2023-09-12T14:36:54;5.37;;;5.07;;
53299;SDS011;39187;48.476;8.310;2023-09-12T14:39:20;5.67;;;5.47;;
53299;SDS011;39187;48.476;8.310;2023-09-12T14:41:47;6.60;;;6.10;;
53299;SDS011;39187;48.476;8.310;2023-09-12T14:44:19;6.40;;;5.87;;
53299;SDS011;39187;48.476;8.310;2023-09-12T14:46:48;6.13;;;5.57;;
53299;SDS011;39187;48.476;8.310;2023-09-12T14:49:14;6.20;;;5.90;;
53299;SDS011;39187;48.476;8.310;2023-09-12T14:51:40;5.17;;;4.90;;
53299;SDS011;39187;48.476;8.310;2023-09-12T14:54:06;6.40;;;6.10;;
53299;SDS011;39187;48.476;8.310;2023-09-12T14:56:32;5.70;;;5.40;;
53299;SDS011;39187;48.476;8.310;2023-09-12T14:58:59;6.67;;;6.23;;
53299;SDS011;39187;48.476;8.310;2023-09-12T15:01:25;5.80;;;5.60;;